sensor_id;sensor_type;location;lat;lon;timestamp;temperature;humidity
563;DHT22;266;49.514;8.294;2022-11-02T00:01:29;9.50;99.90
563;DHT22;266;49.514;8.294;2022-11-02T00:03:58;9.50;99.90
563;DHT22;266;49.514;8.294;2022-11-02T00:06:26;9.50;99.90
563;DHT22;266;49.514;8.294;2022-11-02T00:08:54;9.50;99.90
563;DHT22;266;49.514;8.294;2022-11-02T00:11:22;9.50;99.90
563;DHT22;266;49.514;8.294;2022-11-02T00:13:50;9.40;99.90
563;DHT22;266;49.514;8.294;2022-11-02T00:16:20;9.50;99.90
563;DHT22;266;49.514;8.294;2022-11-02T00:18:51;9.50;99.90
563;DHT22;266;49.514;8.294;2022-11-02T00:21:22;9.40;99.90
563;DHT22;266;49.514;8.294;2022-11-02T00:23:51;9.40;99.90
563;DHT22;266;49.514;8.294;2022-11-02T00:26:19;9.50;99.90
563;DHT22;266;49.514;8.294;2022-11-02T00:28:47;9.50;99.90
563;DHT22;266;49.514;8.294;2022-11-02T00:31:15;9.40;99.90
563;DHT22;266;49.514;8.294;2022-11-02T00:33:45;9.30;99.90
563;DHT22;266;49.514;8.294;2022-11-02T00:36:13;9.30;99.90
563;DHT22;266;49.514;8.294;2022-11-02T00:38:41;9.40;99.90
563;DHT22;266;49.514;8.294;2022-11-02T00:41:09;9.30;99.90
563;DHT22;266;49.514;8.294;2022-11-02T00:43:38;9.30;99.90
563;DHT22;266;49.514;8.294;2022-11-02T00:46:06;9.30;99.90
563;DHT22;266;49.514;8.294;2022-11-02T00:48:34;9.30;99.90
563;DHT22;266;49.514;8.294;2022-11-02T00:51:04;9.30;99.90
563;DHT22;266;49.514;8.294;2022-11-02T00:53:31;9.30;99.90
563;DHT22;266;49.514;8.294;2022-11-02T00:55:59;9.30;99.90
563;DHT22;266;49.514;8.294;2022-11-02T00:58:27;9.30;99.90
563;DHT22;266;49.514;8.294;2022-11-02T01:00:55;9.30;99.90
563;DHT22;266;49.514;8.294;2022-11-02T01:03:23;9.30;99.90
563;DHT22;266;49.514;8.294;2022-11-02T01:05:51;9.20;99.90
563;DHT22;266;49.514;8.294;2022-11-02T01:08:20;9.20;99.90
563;DHT22;266;49.514;8.294;2022-11-02T01:10:48;9.20;99.90
563;DHT22;266;49.514;8.294;2022-11-02T01:13:16;9.20;99.90
563;DHT22;266;49.514;8.294;2022-11-02T01:15:44;9.10;99.90
563;DHT22;266;49.514;8.294;2022-11-02T01:18:12;9.10;99.90
563;DHT22;266;49.514;8.294;2022-11-02T01:20:40;9.10;99.90
563;DHT22;266;49.514;8.294;2022-11-02T01:23:08;9.10;99.90
563;DHT22;266;49.514;8.294;2022-11-02T01:25:37;9.10;99.90
563;DHT22;266;49.514;8.294;2022-11-02T01:28:11;9.10;99.90
563;DHT22;266;49.514;8.294;2022-11-02T01:30:38;9.10;99.90
563;DHT22;266;49.514;8.294;2022-11-02T01:33:06;9.20;99.90
563;DHT22;266;49.514;8.294;2022-11-02T01:35:35;9.20;99.90
563;DHT22;266;49.514;8.294;2022-11-02T01:38:03;9.30;99.90
563;DHT22;266;49.514;8.294;2022-11-02T01:40:34;9.30;99.90
563;DHT22;266;49.514;8.294;2022-11-02T01:43:22;9.30;99.90
563;DHT22;266;49.514;8.294;2022-11-02T01:45:53;9.30;99.90
563;DHT22;266;49.514;8.294;2022-11-02T01:48:27;9.40;99.90
563;DHT22;266;49.514;8.294;2022-11-02T01:50:59;9.40;99.90
563;DHT22;266;49.514;8.294;2022-11-02T01:53:29;9.40;99.90
563;DHT22;266;49.514;8.294;2022-11-02T01:55:58;9.40;99.90
563;DHT22;266;49.514;8.294;2022-11-02T01:58:28;9.40;99.90
563;DHT22;266;49.514;8.294;2022-11-02T02:00:56;9.40;99.90
563;DHT22;266;49.514;8.294;2022-11-02T02:03:24;9.40;99.90
563;DHT22;266;49.514;8.294;2022-11-02T02:05:56;9.40;99.90
563;DHT22;266;49.514;8.294;2022-11-02T02:08:26;9.40;99.90
563;DHT22;266;49.514;8.294;2022-11-02T02:10:55;9.40;99.90
563;DHT22;266;49.514;8.294;2022-11-02T02:13:24;9.40;99.90
563;DHT22;266;49.514;8.294;2022-11-02T02:16:01;9.50;99.90
563;DHT22;266;49.514;8.294;2022-11-02T02:18:36;9.50;99.90
563;DHT22;266;49.514;8.294;2022-11-02T02:21:20;9.50;99.90
563;DHT22;266;49.514;8.294;2022-11-02T02:27:01;9.50;99.90
563;DHT22;266;49.514;8.294;2022-11-02T02:29:50;9.50;99.90
563;DHT22;266;49.514;8.294;2022-11-02T02:32:24;9.50;99.90
563;DHT22;266;49.514;8.294;2022-11-02T02:34:57;9.50;99.90
563;DHT22;266;49.514;8.294;2022-11-02T02:37:34;9.50;99.90
563;DHT22;266;49.514;8.294;2022-11-02T02:40:05;9.50;99.90
563;DHT22;266;49.514;8.294;2022-11-02T02:42:38;9.50;99.90
563;DHT22;266;49.514;8.294;2022-11-02T02:45:14;9.50;99.90
563;DHT22;266;49.514;8.294;2022-11-02T02:47:47;9.40;99.90
563;DHT22;266;49.514;8.294;2022-11-02T02:50:19;9.40;99.90
563;DHT22;266;49.514;8.294;2022-11-02T02:52:49;9.40;99.90
563;DHT22;266;49.514;8.294;2022-11-02T02:55:25;9.50;99.90
563;DHT22;266;49.514;8.294;2022-11-02T02:57:55;9.50;99.90
563;DHT22;266;49.514;8.294;2022-11-02T03:00:26;9.50;99.90
563;DHT22;266;49.514;8.294;2022-11-02T03:02:54;9.50;99.90
563;DHT22;266;49.514;8.294;2022-11-02T03:05:31;9.50;99.90
563;DHT22;266;49.514;8.294;2022-11-02T03:08:02;9.50;99.90
563;DHT22;266;49.514;8.294;2022-11-02T03:10:34;9.50;99.90
563;DHT22;266;49.514;8.294;2022-11-02T03:13:17;9.50;99.90
563;DHT22;266;49.514;8.294;2022-11-02T03:15:52;9.50;99.90
563;DHT22;266;49.514;8.294;2022-11-02T03:18:33;9.50;99.90
563;DHT22;266;49.514;8.294;2022-11-02T03:21:06;9.50;99.90
563;DHT22;266;49.514;8.294;2022-11-02T03:23:45;9.40;99.90
563;DHT22;266;49.514;8.294;2022-11-02T03:26:21;9.40;99.90
563;DHT22;266;49.514;8.294;2022-11-02T03:28:56;9.50;99.90
563;DHT22;266;49.514;8.294;2022-11-02T03:31:33;9.50;99.90
563;DHT22;266;49.514;8.294;2022-11-02T03:34:10;9.50;99.90
563;DHT22;266;49.514;8.294;2022-11-02T03:36:44;9.50;99.90
563;DHT22;266;49.514;8.294;2022-11-02T03:39:15;9.50;99.90
563;DHT22;266;49.514;8.294;2022-11-02T03:41:46;9.40;99.90
563;DHT22;266;49.514;8.294;2022-11-02T03:44:20;9.40;99.90
563;DHT22;266;49.514;8.294;2022-11-02T03:46:55;9.30;99.90
563;DHT22;266;49.514;8.294;2022-11-02T03:49:27;9.30;99.90
563;DHT22;266;49.514;8.294;2022-11-02T03:51:58;9.30;99.90
563;DHT22;266;49.514;8.294;2022-11-02T03:54:35;9.30;99.90
563;DHT22;266;49.514;8.294;2022-11-02T03:57:08;9.40;99.90
563;DHT22;266;49.514;8.294;2022-11-02T03:59:37;9.40;99.90
563;DHT22;266;49.514;8.294;2022-11-02T04:02:09;9.50;99.90
563;DHT22;266;49.514;8.294;2022-11-02T04:04:47;9.40;99.90
563;DHT22;266;49.514;8.294;2022-11-02T04:07:18;9.40;99.90
563;DHT22;266;49.514;8.294;2022-11-02T04:09:47;9.40;99.90
563;DHT22;266;49.514;8.294;2022-11-02T04:12:15;9.40;99.90
563;DHT22;266;49.514;8.294;2022-11-02T04:15:00;9.40;99.90
563;DHT22;266;49.514;8.294;2022-11-02T04:17:29;9.40;99.90
563;DHT22;266;49.514;8.294;2022-11-02T04:20:15;9.50;99.90
563;DHT22;266;49.514;8.294;2022-11-02T04:22:43;9.50;99.90
563;DHT22;266;49.514;8.294;2022-11-02T04:25:28;9.50;99.90
563;DHT22;266;49.514;8.294;2022-11-02T04:28:06;9.60;99.90
563;DHT22;266;49.514;8.294;2022-11-02T04:30:34;9.60;99.90
563;DHT22;266;49.514;8.294;2022-11-02T04:33:03;9.70;99.90
563;DHT22;266;49.514;8.294;2022-11-02T04:35:48;9.70;99.90
563;DHT22;266;49.514;8.294;2022-11-02T04:38:16;9.80;99.90
563;DHT22;266;49.514;8.294;2022-11-02T04:41:02;9.80;99.90
563;DHT22;266;49.514;8.294;2022-11-02T04:43:47;9.90;99.90
563;DHT22;266;49.514;8.294;2022-11-02T04:46:15;9.90;99.90
563;DHT22;266;49.514;8.294;2022-11-02T04:48:44;10.20;99.90
563;DHT22;266;49.514;8.294;2022-11-02T04:51:12;10.50;99.90
563;DHT22;266;49.514;8.294;2022-11-02T04:53:40;10.80;99.90
563;DHT22;266;49.514;8.294;2022-11-02T04:56:08;11.00;99.90
563;DHT22;266;49.514;8.294;2022-11-02T04:58:36;11.20;99.90
563;DHT22;266;49.514;8.294;2022-11-02T05:01:05;11.40;99.90
563;DHT22;266;49.514;8.294;2022-11-02T05:03:34;11.50;99.90
563;DHT22;266;49.514;8.294;2022-11-02T05:06:04;11.60;99.90
563;DHT22;266;49.514;8.294;2022-11-02T05:08:32;11.70;99.90
563;DHT22;266;49.514;8.294;2022-11-02T05:11:00;11.80;99.90
563;DHT22;266;49.514;8.294;2022-11-02T05:13:28;11.90;99.90
563;DHT22;266;49.514;8.294;2022-11-02T05:15:56;11.90;99.90
563;DHT22;266;49.514;8.294;2022-11-02T05:18:25;11.90;99.90
563;DHT22;266;49.514;8.294;2022-11-02T05:20:55;12.10;99.90
563;DHT22;266;49.514;8.294;2022-11-02T05:23:25;12.10;99.90
563;DHT22;266;49.514;8.294;2022-11-02T05:25:54;12.20;99.90
563;DHT22;266;49.514;8.294;2022-11-02T05:28:22;12.20;99.90
563;DHT22;266;49.514;8.294;2022-11-02T05:30:51;12.10;99.90
563;DHT22;266;49.514;8.294;2022-11-02T05:33:19;12.20;99.90
563;DHT22;266;49.514;8.294;2022-11-02T05:35:55;12.30;99.90
563;DHT22;266;49.514;8.294;2022-11-02T05:38:25;12.30;99.90
563;DHT22;266;49.514;8.294;2022-11-02T05:40:55;12.30;99.90
563;DHT22;266;49.514;8.294;2022-11-02T05:43:23;12.30;99.90
563;DHT22;266;49.514;8.294;2022-11-02T05:45:52;12.30;99.90
563;DHT22;266;49.514;8.294;2022-11-02T05:48:21;12.30;99.90
563;DHT22;266;49.514;8.294;2022-11-02T05:50:54;12.30;99.90
563;DHT22;266;49.514;8.294;2022-11-02T05:53:22;12.30;99.90
563;DHT22;266;49.514;8.294;2022-11-02T05:55:52;12.30;99.90
563;DHT22;266;49.514;8.294;2022-11-02T05:58:20;12.20;99.90
563;DHT22;266;49.514;8.294;2022-11-02T06:00:47;12.20;99.90
563;DHT22;266;49.514;8.294;2022-11-02T06:03:16;12.20;99.90
563;DHT22;266;49.514;8.294;2022-11-02T06:05:44;12.10;99.90
563;DHT22;266;49.514;8.294;2022-11-02T06:08:13;12.10;99.90
563;DHT22;266;49.514;8.294;2022-11-02T06:10:41;12.00;99.90
563;DHT22;266;49.514;8.294;2022-11-02T06:13:11;12.10;99.90
563;DHT22;266;49.514;8.294;2022-11-02T06:15:39;12.10;99.90
563;DHT22;266;49.514;8.294;2022-11-02T06:18:07;12.10;99.90
563;DHT22;266;49.514;8.294;2022-11-02T06:20:35;12.10;99.90
563;DHT22;266;49.514;8.294;2022-11-02T06:23:03;12.10;99.90
563;DHT22;266;49.514;8.294;2022-11-02T06:25:31;12.10;99.90
563;DHT22;266;49.514;8.294;2022-11-02T06:27:59;12.10;99.90
563;DHT22;266;49.514;8.294;2022-11-02T06:30:29;12.20;99.90
563;DHT22;266;49.514;8.294;2022-11-02T06:32:56;12.20;99.90
563;DHT22;266;49.514;8.294;2022-11-02T06:35:31;12.30;99.90
563;DHT22;266;49.514;8.294;2022-11-02T06:37:59;12.30;99.90
563;DHT22;266;49.514;8.294;2022-11-02T06:40:27;12.30;99.90
563;DHT22;266;49.514;8.294;2022-11-02T06:42:56;12.20;99.90
563;DHT22;266;49.514;8.294;2022-11-02T06:45:45;12.10;99.90
563;DHT22;266;49.514;8.294;2022-11-02T06:48:13;12.20;99.90
563;DHT22;266;49.514;8.294;2022-11-02T06:50:41;12.20;99.90
563;DHT22;266;49.514;8.294;2022-11-02T06:53:09;12.10;99.90
563;DHT22;266;49.514;8.294;2022-11-02T06:55:37;12.10;99.90
563;DHT22;266;49.514;8.294;2022-11-02T06:58:05;12.10;99.90
563;DHT22;266;49.514;8.294;2022-11-02T07:00:33;12.00;99.90
563;DHT22;266;49.514;8.294;2022-11-02T07:03:04;12.00;99.90
563;DHT22;266;49.514;8.294;2022-11-02T07:05:34;12.00;99.90
563;DHT22;266;49.514;8.294;2022-11-02T07:08:02;12.00;99.90
563;DHT22;266;49.514;8.294;2022-11-02T07:10:31;12.00;99.90
563;DHT22;266;49.514;8.294;2022-11-02T07:13:00;12.00;99.90
563;DHT22;266;49.514;8.294;2022-11-02T07:15:29;12.10;99.90
563;DHT22;266;49.514;8.294;2022-11-02T07:17:57;12.10;99.90
563;DHT22;266;49.514;8.294;2022-11-02T07:20:26;12.10;99.90
563;DHT22;266;49.514;8.294;2022-11-02T07:22:57;12.10;99.90
563;DHT22;266;49.514;8.294;2022-11-02T07:25:26;12.20;99.90
563;DHT22;266;49.514;8.294;2022-11-02T07:27:57;12.20;99.90
563;DHT22;266;49.514;8.294;2022-11-02T07:30:29;12.40;99.90
563;DHT22;266;49.514;8.294;2022-11-02T07:32:57;12.40;99.90
563;DHT22;266;49.514;8.294;2022-11-02T07:35:26;12.50;99.90
563;DHT22;266;49.514;8.294;2022-11-02T07:37:55;12.70;99.90
563;DHT22;266;49.514;8.294;2022-11-02T07:40:24;12.90;99.90
563;DHT22;266;49.514;8.294;2022-11-02T07:42:54;13.00;99.90
563;DHT22;266;49.514;8.294;2022-11-02T07:45:23;13.20;99.90
563;DHT22;266;49.514;8.294;2022-11-02T07:47:51;13.50;99.90
563;DHT22;266;49.514;8.294;2022-11-02T07:50:21;13.60;99.90
563;DHT22;266;49.514;8.294;2022-11-02T07:52:52;13.80;99.90
563;DHT22;266;49.514;8.294;2022-11-02T07:55:22;14.00;99.90
563;DHT22;266;49.514;8.294;2022-11-02T07:57:54;14.20;99.90
563;DHT22;266;49.514;8.294;2022-11-02T08:00:22;14.40;99.90
563;DHT22;266;49.514;8.294;2022-11-02T08:02:57;14.60;99.90
563;DHT22;266;49.514;8.294;2022-11-02T08:05:26;14.90;99.90
563;DHT22;266;49.514;8.294;2022-11-02T08:08:00;15.10;99.90
563;DHT22;266;49.514;8.294;2022-11-02T08:10:30;15.50;99.90
563;DHT22;266;49.514;8.294;2022-11-02T08:13:06;15.80;99.90
563;DHT22;266;49.514;8.294;2022-11-02T08:15:34;16.10;99.90
563;DHT22;266;49.514;8.294;2022-11-02T08:18:06;16.10;99.90
563;DHT22;266;49.514;8.294;2022-11-02T08:20:35;16.30;99.90
563;DHT22;266;49.514;8.294;2022-11-02T08:23:05;16.50;99.90
563;DHT22;266;49.514;8.294;2022-11-02T08:25:35;16.80;99.90
563;DHT22;266;49.514;8.294;2022-11-02T08:28:04;17.00;99.90
563;DHT22;266;49.514;8.294;2022-11-02T08:30:34;17.40;99.90
563;DHT22;266;49.514;8.294;2022-11-02T08:33:03;17.80;99.90
563;DHT22;266;49.514;8.294;2022-11-02T08:35:32;17.90;99.90
563;DHT22;266;49.514;8.294;2022-11-02T08:38:00;17.90;99.90
563;DHT22;266;49.514;8.294;2022-11-02T08:40:31;18.20;99.90
563;DHT22;266;49.514;8.294;2022-11-02T08:43:00;18.30;99.90
563;DHT22;266;49.514;8.294;2022-11-02T08:45:29;18.50;99.90
563;DHT22;266;49.514;8.294;2022-11-02T08:48:18;18.80;99.90
563;DHT22;266;49.514;8.294;2022-11-02T08:50:47;19.10;99.90
563;DHT22;266;49.514;8.294;2022-11-02T08:53:15;19.00;99.90
563;DHT22;266;49.514;8.294;2022-11-02T08:55:44;18.90;99.90
563;DHT22;266;49.514;8.294;2022-11-02T08:58:12;18.90;99.90
563;DHT22;266;49.514;8.294;2022-11-02T09:00:40;19.00;99.90
563;DHT22;266;49.514;8.294;2022-11-02T09:03:10;19.10;99.90
563;DHT22;266;49.514;8.294;2022-11-02T09:05:39;18.90;99.90
563;DHT22;266;49.514;8.294;2022-11-02T09:08:10;18.40;99.90
563;DHT22;266;49.514;8.294;2022-11-02T09:10:39;18.20;99.90
563;DHT22;266;49.514;8.294;2022-11-02T09:13:10;18.00;99.90
563;DHT22;266;49.514;8.294;2022-11-02T09:15:39;18.00;99.90
563;DHT22;266;49.514;8.294;2022-11-02T09:18:08;18.10;99.90
563;DHT22;266;49.514;8.294;2022-11-02T09:20:36;17.70;99.90
563;DHT22;266;49.514;8.294;2022-11-02T09:23:04;17.50;99.90
563;DHT22;266;49.514;8.294;2022-11-02T09:25:32;17.30;99.90
563;DHT22;266;49.514;8.294;2022-11-02T09:28:00;17.20;99.90
563;DHT22;266;49.514;8.294;2022-11-02T09:30:30;17.20;99.90
563;DHT22;266;49.514;8.294;2022-11-02T09:32:59;17.40;99.90
563;DHT22;266;49.514;8.294;2022-11-02T09:35:29;17.50;99.90
563;DHT22;266;49.514;8.294;2022-11-02T09:37:57;17.60;99.90
563;DHT22;266;49.514;8.294;2022-11-02T09:40:27;17.60;99.90
563;DHT22;266;49.514;8.294;2022-11-02T09:43:02;17.80;99.90
563;DHT22;266;49.514;8.294;2022-11-02T09:45:47;17.70;99.90
563;DHT22;266;49.514;8.294;2022-11-02T09:48:21;17.70;99.90
563;DHT22;266;49.514;8.294;2022-11-02T09:50:57;17.50;99.90
563;DHT22;266;49.514;8.294;2022-11-02T09:53:35;17.20;99.90
563;DHT22;266;49.514;8.294;2022-11-02T09:56:06;17.20;99.90
563;DHT22;266;49.514;8.294;2022-11-02T09:58:38;17.40;99.90
563;DHT22;266;49.514;8.294;2022-11-02T10:01:17;17.40;99.90
563;DHT22;266;49.514;8.294;2022-11-02T10:06:57;17.40;99.90
563;DHT22;266;49.514;8.294;2022-11-02T10:09:31;17.20;99.90
563;DHT22;266;49.514;8.294;2022-11-02T10:12:07;17.30;99.90
563;DHT22;266;49.514;8.294;2022-11-02T10:14:38;17.30;99.90
563;DHT22;266;49.514;8.294;2022-11-02T10:17:13;17.30;99.90
563;DHT22;266;49.514;8.294;2022-11-02T10:19:45;17.40;99.90
563;DHT22;266;49.514;8.294;2022-11-02T10:22:14;17.40;99.90
563;DHT22;266;49.514;8.294;2022-11-02T10:24:44;17.30;99.90
563;DHT22;266;49.514;8.294;2022-11-02T10:27:17;17.30;99.90
563;DHT22;266;49.514;8.294;2022-11-02T10:29:52;17.40;99.90
563;DHT22;266;49.514;8.294;2022-11-02T10:32:24;17.20;99.90
563;DHT22;266;49.514;8.294;2022-11-02T10:34:53;17.10;99.90
563;DHT22;266;49.514;8.294;2022-11-02T10:37:45;17.10;99.90
563;DHT22;266;49.514;8.294;2022-11-02T10:40:25;17.00;99.90
563;DHT22;266;49.514;8.294;2022-11-02T10:43:05;16.80;99.90
563;DHT22;266;49.514;8.294;2022-11-02T10:46:07;16.90;99.90
563;DHT22;266;49.514;8.294;2022-11-02T10:48:45;17.20;99.90
563;DHT22;266;49.514;8.294;2022-11-02T10:51:15;17.30;99.90
563;DHT22;266;49.514;8.294;2022-11-02T10:53:46;17.20;99.90
563;DHT22;266;49.514;8.294;2022-11-02T10:56:18;17.10;99.90
563;DHT22;266;49.514;8.294;2022-11-02T10:58:54;17.00;99.90
563;DHT22;266;49.514;8.294;2022-11-02T11:01:27;16.80;99.90
563;DHT22;266;49.514;8.294;2022-11-02T11:03:58;16.80;99.90
563;DHT22;266;49.514;8.294;2022-11-02T11:06:29;16.60;99.90
563;DHT22;266;49.514;8.294;2022-11-02T11:09:00;16.70;99.90
563;DHT22;266;49.514;8.294;2022-11-02T11:11:30;16.80;99.90
563;DHT22;266;49.514;8.294;2022-11-02T11:14:02;16.90;99.90
563;DHT22;266;49.514;8.294;2022-11-02T11:16:52;17.00;99.90
563;DHT22;266;49.514;8.294;2022-11-02T11:19:28;16.90;99.90
563;DHT22;266;49.514;8.294;2022-11-02T11:22:00;16.80;99.90
563;DHT22;266;49.514;8.294;2022-11-02T11:24:30;16.90;99.90
563;DHT22;266;49.514;8.294;2022-11-02T11:27:15;17.00;99.90
563;DHT22;266;49.514;8.294;2022-11-02T11:29:53;17.30;99.90
563;DHT22;266;49.514;8.294;2022-11-02T11:32:23;17.20;99.90
563;DHT22;266;49.514;8.294;2022-11-02T11:35:00;17.20;99.90
563;DHT22;266;49.514;8.294;2022-11-02T11:37:29;17.00;99.90
563;DHT22;266;49.514;8.294;2022-11-02T11:40:00;17.00;99.90
563;DHT22;266;49.514;8.294;2022-11-02T11:42:33;16.90;99.90
563;DHT22;266;49.514;8.294;2022-11-02T11:45:05;16.90;99.90
563;DHT22;266;49.514;8.294;2022-11-02T11:47:36;16.80;99.90
563;DHT22;266;49.514;8.294;2022-11-02T11:50:12;16.70;99.90
563;DHT22;266;49.514;8.294;2022-11-02T11:53:09;16.80;99.90
563;DHT22;266;49.514;8.294;2022-11-02T11:55:45;16.90;99.90
563;DHT22;266;49.514;8.294;2022-11-02T11:58:19;16.80;99.90
563;DHT22;266;49.514;8.294;2022-11-02T12:01:01;16.80;99.90
563;DHT22;266;49.514;8.294;2022-11-02T12:03:49;16.70;99.90
563;DHT22;266;49.514;8.294;2022-11-02T12:06:24;16.70;99.90
563;DHT22;266;49.514;8.294;2022-11-02T12:08:58;16.70;99.90
563;DHT22;266;49.514;8.294;2022-11-02T12:11:39;16.70;99.90
563;DHT22;266;49.514;8.294;2022-11-02T12:14:18;16.70;99.90
563;DHT22;266;49.514;8.294;2022-11-02T12:17:07;16.80;99.90
563;DHT22;266;49.514;8.294;2022-11-02T12:19:51;17.00;99.90
563;DHT22;266;49.514;8.294;2022-11-02T12:22:28;17.10;99.90
563;DHT22;266;49.514;8.294;2022-11-02T12:25:16;17.10;99.90
563;DHT22;266;49.514;8.294;2022-11-02T12:27:52;17.40;99.90
563;DHT22;266;49.514;8.294;2022-11-02T12:30:30;17.50;99.90
563;DHT22;266;49.514;8.294;2022-11-02T12:33:10;17.80;99.90
563;DHT22;266;49.514;8.294;2022-11-02T12:36:01;18.00;99.90
563;DHT22;266;49.514;8.294;2022-11-02T12:38:56;18.20;99.90
563;DHT22;266;49.514;8.294;2022-11-02T12:41:36;18.50;99.90
563;DHT22;266;49.514;8.294;2022-11-02T12:44:20;18.80;99.90
563;DHT22;266;49.514;8.294;2022-11-02T12:46:55;18.80;99.90
563;DHT22;266;49.514;8.294;2022-11-02T12:49:37;18.70;99.90
563;DHT22;266;49.514;8.294;2022-11-02T12:52:17;18.70;99.90
563;DHT22;266;49.514;8.294;2022-11-02T12:54:52;18.80;99.90
563;DHT22;266;49.514;8.294;2022-11-02T12:57:24;19.00;99.90
563;DHT22;266;49.514;8.294;2022-11-02T12:59:59;19.00;99.90
563;DHT22;266;49.514;8.294;2022-11-02T13:02:30;19.10;99.90
563;DHT22;266;49.514;8.294;2022-11-02T13:05:02;19.10;99.90
563;DHT22;266;49.514;8.294;2022-11-02T13:07:36;19.20;99.90
563;DHT22;266;49.514;8.294;2022-11-02T13:10:14;19.20;99.90
563;DHT22;266;49.514;8.294;2022-11-02T13:12:44;19.50;99.90
563;DHT22;266;49.514;8.294;2022-11-02T13:15:16;19.60;99.90
563;DHT22;266;49.514;8.294;2022-11-02T13:17:49;19.60;99.90
563;DHT22;266;49.514;8.294;2022-11-02T13:20:22;19.70;99.90
563;DHT22;266;49.514;8.294;2022-11-02T13:22:55;19.60;99.90
563;DHT22;266;49.514;8.294;2022-11-02T13:25:30;19.70;99.90
563;DHT22;266;49.514;8.294;2022-11-02T13:28:02;19.90;99.90
563;DHT22;266;49.514;8.294;2022-11-02T13:30:34;20.20;99.90
563;DHT22;266;49.514;8.294;2022-11-02T13:33:07;20.30;99.90
563;DHT22;266;49.514;8.294;2022-11-02T13:35:39;20.30;99.90
563;DHT22;266;49.514;8.294;2022-11-02T13:38:22;20.10;99.90
563;DHT22;266;49.514;8.294;2022-11-02T13:41:02;19.80;99.90
563;DHT22;266;49.514;8.294;2022-11-02T13:46:52;19.90;99.90
563;DHT22;266;49.514;8.294;2022-11-02T13:49:27;19.90;99.90
563;DHT22;266;49.514;8.294;2022-11-02T13:51:58;19.90;99.90
563;DHT22;266;49.514;8.294;2022-11-02T13:54:30;20.20;99.90
563;DHT22;266;49.514;8.294;2022-11-02T13:57:01;19.90;99.90
563;DHT22;266;49.514;8.294;2022-11-02T13:59:31;19.90;99.90
563;DHT22;266;49.514;8.294;2022-11-02T14:02:14;19.80;99.90
563;DHT22;266;49.514;8.294;2022-11-02T14:04:44;19.60;99.90
563;DHT22;266;49.514;8.294;2022-11-02T14:07:21;19.10;99.90
563;DHT22;266;49.514;8.294;2022-11-02T14:09:56;18.90;99.90
563;DHT22;266;49.514;8.294;2022-11-02T14:12:31;18.70;99.90
563;DHT22;266;49.514;8.294;2022-11-02T14:18:13;18.50;99.90
563;DHT22;266;49.514;8.294;2022-11-02T14:20:43;18.40;99.90
563;DHT22;266;49.514;8.294;2022-11-02T14:23:37;18.40;99.90
563;DHT22;266;49.514;8.294;2022-11-02T14:26:33;18.30;99.90
563;DHT22;266;49.514;8.294;2022-11-02T14:29:50;18.20;99.90
563;DHT22;266;49.514;8.294;2022-11-02T14:32:28;18.10;99.90
563;DHT22;266;49.514;8.294;2022-11-02T14:38:20;17.80;99.90
563;DHT22;266;49.514;8.294;2022-11-02T14:40:59;17.70;99.90
563;DHT22;266;49.514;8.294;2022-11-02T14:43:58;17.60;99.90
563;DHT22;266;49.514;8.294;2022-11-02T14:46:50;17.40;99.90
563;DHT22;266;49.514;8.294;2022-11-02T14:49:25;17.20;99.90
563;DHT22;266;49.514;8.294;2022-11-02T14:51:59;16.90;99.90
563;DHT22;266;49.514;8.294;2022-11-02T14:54:32;16.80;99.90
563;DHT22;266;49.514;8.294;2022-11-02T14:57:03;16.70;99.90
563;DHT22;266;49.514;8.294;2022-11-02T14:59:35;16.70;99.90
563;DHT22;266;49.514;8.294;2022-11-02T15:02:11;16.50;99.90
563;DHT22;266;49.514;8.294;2022-11-02T15:04:48;16.50;99.90
563;DHT22;266;49.514;8.294;2022-11-02T15:07:19;16.40;99.90
563;DHT22;266;49.514;8.294;2022-11-02T15:09:54;16.20;99.90
563;DHT22;266;49.514;8.294;2022-11-02T15:12:39;16.20;99.90
563;DHT22;266;49.514;8.294;2022-11-02T15:15:31;16.10;99.90
563;DHT22;266;49.514;8.294;2022-11-02T15:18:21;16.00;99.90
563;DHT22;266;49.514;8.294;2022-11-02T15:21:24;16.00;99.90
563;DHT22;266;49.514;8.294;2022-11-02T15:24:13;16.00;99.90
563;DHT22;266;49.514;8.294;2022-11-02T15:26:47;15.80;99.90
563;DHT22;266;49.514;8.294;2022-11-02T15:29:33;15.70;99.90
563;DHT22;266;49.514;8.294;2022-11-02T15:32:19;15.70;99.90
563;DHT22;266;49.514;8.294;2022-11-02T15:34:52;15.70;99.90
563;DHT22;266;49.514;8.294;2022-11-02T15:37:22;15.60;99.90
563;DHT22;266;49.514;8.294;2022-11-02T15:39:52;15.40;99.90
563;DHT22;266;49.514;8.294;2022-11-02T15:42:31;15.40;99.90
563;DHT22;266;49.514;8.294;2022-11-02T15:45:25;15.30;99.90
563;DHT22;266;49.514;8.294;2022-11-02T15:48:23;15.20;99.90
563;DHT22;266;49.514;8.294;2022-11-02T15:51:01;15.10;99.90
563;DHT22;266;49.514;8.294;2022-11-02T15:53:59;15.00;99.90
563;DHT22;266;49.514;8.294;2022-11-02T15:56:42;14.90;99.90
563;DHT22;266;49.514;8.294;2022-11-02T15:59:31;14.70;99.90
563;DHT22;266;49.514;8.294;2022-11-02T16:02:13;14.60;99.90
563;DHT22;266;49.514;8.294;2022-11-02T16:04:46;14.50;99.90
563;DHT22;266;49.514;8.294;2022-11-02T16:07:18;14.30;99.90
563;DHT22;266;49.514;8.294;2022-11-02T16:09:46;14.20;99.90
563;DHT22;266;49.514;8.294;2022-11-02T16:12:15;14.10;99.90
563;DHT22;266;49.514;8.294;2022-11-02T16:14:50;14.00;99.90
563;DHT22;266;49.514;8.294;2022-11-02T16:17:22;13.90;99.90
563;DHT22;266;49.514;8.294;2022-11-02T16:19:52;13.80;99.90
563;DHT22;266;49.514;8.294;2022-11-02T16:22:36;13.70;99.90
563;DHT22;266;49.514;8.294;2022-11-02T16:25:13;13.50;99.90
563;DHT22;266;49.514;8.294;2022-11-02T16:27:43;13.50;99.90
563;DHT22;266;49.514;8.294;2022-11-02T16:30:18;13.40;99.90
563;DHT22;266;49.514;8.294;2022-11-02T16:32:49;13.30;99.90
563;DHT22;266;49.514;8.294;2022-11-02T16:35:19;13.20;99.90
563;DHT22;266;49.514;8.294;2022-11-02T16:37:49;12.90;99.90
563;DHT22;266;49.514;8.294;2022-11-02T16:40:18;12.60;99.90
563;DHT22;266;49.514;8.294;2022-11-02T16:42:53;12.40;99.90
563;DHT22;266;49.514;8.294;2022-11-02T16:45:33;12.30;99.90
563;DHT22;266;49.514;8.294;2022-11-02T16:48:16;12.20;99.90
563;DHT22;266;49.514;8.294;2022-11-02T16:51:03;12.10;99.90
563;DHT22;266;49.514;8.294;2022-11-02T16:53:41;12.10;99.90
563;DHT22;266;49.514;8.294;2022-11-02T16:56:15;12.00;99.90
563;DHT22;266;49.514;8.294;2022-11-02T16:58:54;12.00;99.90
563;DHT22;266;49.514;8.294;2022-11-02T17:01:27;12.00;99.90
563;DHT22;266;49.514;8.294;2022-11-02T17:03:57;12.00;99.90
563;DHT22;266;49.514;8.294;2022-11-02T17:06:25;11.90;99.90
563;DHT22;266;49.514;8.294;2022-11-02T17:08:54;11.70;99.90
563;DHT22;266;49.514;8.294;2022-11-02T17:11:23;11.60;99.90
563;DHT22;266;49.514;8.294;2022-11-02T17:13:55;11.50;99.90
563;DHT22;266;49.514;8.294;2022-11-02T17:16:31;11.20;99.90
563;DHT22;266;49.514;8.294;2022-11-02T17:19:02;11.10;99.90
563;DHT22;266;49.514;8.294;2022-11-02T17:21:30;10.90;99.90
563;DHT22;266;49.514;8.294;2022-11-02T17:24:25;10.80;99.90
563;DHT22;266;49.514;8.294;2022-11-02T17:27:20;10.80;99.90
563;DHT22;266;49.514;8.294;2022-11-02T17:29:49;10.70;99.90
563;DHT22;266;49.514;8.294;2022-11-02T17:32:19;10.60;99.90
563;DHT22;266;49.514;8.294;2022-11-02T17:34:48;10.60;99.90
563;DHT22;266;49.514;8.294;2022-11-02T17:37:22;10.60;99.90